Time,TemperatureF,DewpointF,PressureIn,WindDirection,WindDirectionDegrees,WindSpeedMPH,WindSpeedGustMPH,Humidity,HourlyPrecipIn,Conditions,Clouds,dailyrainin,SoftwareType,DateUTC
2013-02-21 00:01:00,28.0,13.0,-100.00,North,-999,0.0,0.0,52,-99.99,,,-99.99,,2013-02-21 08:01:00,
2013-02-21 00:42:00,30.0,16.0,-100.00,North,-999,0.0,0.0,56,-99.99,,,-99.99,,2013-02-21 08:42:00,
2013-02-21 00:52:00,30.0,16.0,-100.00,North,-999,0.0,0.0,56,-99.99,,,-99.99,,2013-02-21 08:52:00,
2013-02-21 01:01:00,30.0,16.0,-100.00,North,-999,0.0,0.0,56,-99.99,,,-99.99,,2013-02-21 09:01:00,
2013-02-21 01:42:00,27.0,14.0,-100.00,North,-999,0.0,0.0,57,-99.99,,,-99.99,,2013-02-21 09:42:00,
2013-02-21 01:52:00,29.0,12.0,-100.00,North,-999,0.0,0.0,50,-99.99,,,-99.99,,2013-02-21 09:52:00,
2013-02-21 02:01:00,26.0,14.0,-100.00,North,-999,0.0,0.0,61,-99.99,,,-99.99,,2013-02-21 10:01:00,
2013-02-21 02:11:00,25.0,14.0,-100.00,North,-999,0.0,0.0,61,-99.99,,,-99.99,,2013-02-21 10:11:00,
2013-02-21 02:21:00,25.0,14.0,-100.00,North,-999,0.0,0.0,61,-99.99,,,-99.99,,2013-02-21 10:21:00,
2013-02-21 02:31:00,25.0,14.0,-100.00,North,-999,0.0,0.0,61,-99.99,,,-99.99,,2013-02-21 10:31:00,
2013-02-21 02:41:00,26.0,15.0,-100.00,North,-999,0.0,0.0,62,-99.99,,,-99.99,,2013-02-21 10:41:00,
2013-02-21 02:51:00,27.0,14.0,-100.00,North,-999,0.0,0.0,58,-99.99,,,-99.99,,2013-02-21 10:51:00,
2013-02-21 03:01:00,26.0,15.0,-100.00,North,-999,0.0,0.0,62,-99.99,,,-99.99,,2013-02-21 11:01:00,
2013-02-21 03:11:00,26.0,15.0,-100.00,North,-999,0.0,0.0,62,-99.99,,,-99.99,,2013-02-21 11:11:00,
2013-02-21 03:21:00,28.0,14.0,-100.00,North,-999,0.0,0.0,54,-99.99,,,-99.99,,2013-02-21 11:21:00,
2013-02-21 03:31:00,29.0,14.0,-100.00,North,-999,0.0,0.0,53,-99.99,,,-99.99,,2013-02-21 11:31:00,
2013-02-21 03:41:00,28.0,14.0,-100.00,North,-999,0.0,0.0,54,-99.99,,,-99.99,,2013-02-21 11:41:00,
2013-02-21 03:51:00,28.0,15.0,-100.00,North,-999,0.0,0.0,59,-99.99,,,-99.99,,2013-02-21 11:51:00,
2013-02-21 04:01:00,28.0,15.0,-100.00,North,-999,0.0,0.0,59,-99.99,,,-99.99,,2013-02-21 12:01:00,
2013-02-21 04:11:00,27.0,21.0,-100.00,North,-999,0.0,0.0,77,-99.99,,,-99.99,,2013-02-21 12:11:00,
2013-02-21 04:21:00,27.0,21.0,-100.00,North,-999,0.0,0.0,79,-99.99,,,-99.99,,2013-02-21 12:21:00,
2013-02-21 04:32:00,27.0,21.0,-100.00,North,-999,0.0,0.0,79,-99.99,,,-99.99,,2013-02-21 12:32:00,
2013-02-21 04:42:00,27.0,21.0,-100.00,North,-999,0.0,0.0,79,-99.99,,,-99.99,,2013-02-21 12:42:00,
2013-02-21 05:22:00,25.0,22.0,-100.00,North,-999,0.0,0.0,87,-99.99,,,-99.99,,2013-02-21 13:22:00,
2013-02-21 05:32:00,25.0,22.0,-100.00,North,-999,0.0,0.0,87,-99.99,,,-99.99,,2013-02-21 13:32:00,
2013-02-21 05:41:00,25.0,22.0,-100.00,North,-999,0.0,0.0,86,-99.99,,,-99.99,,2013-02-21 13:41:00,
2013-02-21 05:52:00,25.0,22.0,-100.00,North,-999,0.0,0.0,89,-99.99,,,-99.99,,2013-02-21 13:52:00,
2013-02-21 06:02:00,25.0,22.0,-100.00,North,-999,0.0,0.0,89,-99.99,,,-99.99,,2013-02-21 14:02:00,
2013-02-21 06:11:00,24.0,22.0,-100.00,North,-999,0.0,0.0,91,-99.99,,,-99.99,,2013-02-21 14:11:00,
2013-02-21 06:21:00,24.0,22.0,-100.00,North,-999,0.0,0.0,90,-99.99,,,-99.99,,2013-02-21 14:21:00,
2013-02-21 06:32:00,25.0,22.0,-100.00,North,-999,0.0,0.0,88,-99.99,,,-99.99,,2013-02-21 14:32:00,
2013-02-21 06:41:00,24.0,21.0,-100.00,North,-999,0.0,0.0,85,-99.99,,,-99.99,,2013-02-21 14:41:00,
2013-02-21 06:52:00,24.0,20.0,-100.00,North,-999,0.0,0.0,82,-99.99,,,-99.99,,2013-02-21 14:52:00,
2013-02-21 07:01:00,24.0,19.0,-100.00,North,-999,0.0,0.0,79,-99.99,,,-99.99,,2013-02-21 15:01:00,
2013-02-21 07:10:00,26.0,18.0,-100.00,North,-999,0.0,0.0,72,-99.99,,,-99.99,,2013-02-21 15:10:00,
2013-02-21 07:12:00,24.0,18.0,-100.00,North,-999,0.0,0.0,75,-99.99,,,-99.99,,2013-02-21 15:12:00,
2013-02-21 07:21:00,24.0,18.0,-100.00,North,-999,0.0,0.0,75,-99.99,,,-99.99,,2013-02-21 15:21:00,
2013-02-21 07:31:00,24.0,18.0,-100.00,North,-999,0.0,0.0,75,-99.99,,,-99.99,,2013-02-21 15:31:00,
2013-02-21 07:52:00,26.0,18.0,-100.00,North,-999,0.0,0.0,72,-99.99,,,-99.99,,2013-02-21 15:52:00,
2013-02-21 08:01:00,26.0,18.0,-100.00,North,-999,0.0,0.0,72,-99.99,,,-99.99,,2013-02-21 16:01:00,
2013-02-21 08:50:00,31.0,24.0,-100.00,North,-999,0.0,0.0,74,-99.99,,,-99.99,,2013-02-21 16:50:00,
2013-02-21 09:11:00,29.0,22.0,-100.00,North,-999,0.0,0.0,76,-99.99,,,-99.99,,2013-02-21 17:11:00,
2013-02-21 09:21:00,29.0,21.0,-100.00,North,-999,0.0,0.0,71,-99.99,,,-99.99,,2013-02-21 17:21:00,
2013-02-21 09:32:00,31.0,24.0,-100.00,North,-999,0.0,0.0,74,-99.99,,,-99.99,,2013-02-21 17:32:00,
2013-02-21 09:42:00,31.0,24.0,-100.00,North,-999,0.0,0.0,74,-99.99,,,-99.99,,2013-02-21 17:42:00,
2013-02-21 10:01:00,31.0,22.0,-100.00,North,-999,0.0,0.0,71,-99.99,,,-99.99,,2013-02-21 18:01:00,
2013-02-21 10:11:00,31.0,22.0,-100.00,North,-999,0.0,0.0,71,-99.99,,,-99.99,,2013-02-21 18:11:00,
2013-02-21 12:01:00,36.0,14.0,-100.00,North,-999,0.0,0.0,40,-99.99,,,-99.99,,2013-02-21 20:01:00,
2013-02-21 12:42:00,36.0,14.0,-100.00,North,-999,0.0,0.0,40,-99.99,,,-99.99,,2013-02-21 20:42:00,
2013-02-21 12:53:00,36.0,14.0,-100.00,North,-999,0.0,0.0,40,-99.99,,,-99.99,,2013-02-21 20:53:00,